Terminal Aerodrome Forecast
Issued by NWS Buffalo, NY

Home | Current Version | Previous Version | Text Only | Print | Product List | Glossary On
Versions: 1 2 3 4 5 6 7 8 9 10 11 12 13 14 15 16 17 18 19 20 21 22 23
622
FTUS41 KBUF 291740
TAFROC
TAF
KROC 291740Z 2918/3018 08015KT P6SM -SHRA BKN020 OVC250
     FM292100 10015KT P6SM VCSH BKN020 OVC045
     FM292300 09013KT P6SM BKN020 BKN060
     FM300200 09007KT P6SM BKN045 BKN250
     FM300700 09006KT P6SM BKN090 BKN250
     FM301400 09010KT P6SM BKN100=

USA.gov is the U.S. government's official web portal to all federal, state and local government web resources and services.